Altus Air Force Base
KLTS : now visible

Airfield :











YOU CAN JOIN US ON...

 
LOGIN :

Register | Disclaimer

   EN    FR    IT 

 









Legend :    VFR   Marginal VFR   IFR   Intensive IFR   Very Intensive IFR
Visi :
Ceiling :
>= 8 km
>= 3000ft
5 to 8 km
1000 to 3000 ft
1500m to 5 km
500 to 1000 ft
800 to 1500m
200 to 500 ft
< 800m
< 200 ft
Symbols :   Thunderstorms  Fog  Heavy snow  Heavy precipitations  Wind > 20 kt






- Airport Elevation : 1382 ft


KLTS - Altus Air Force Base

CURRENT METAR :
  • 120556Z AUTO 02013KT 10SM CLR M06/M16 A3069 RMK AO2 PK WND 36026/02 SLP410 T10591162 11020 21059 401471059 52011 FZRANO $

EXPIRED METARs :
  • 120456Z AUTO 02014KT 10SM CLR M05/M16 A3067 RMK AO2 PK WND 01028/00 SLP402 T10491156 FZRANO $
  • 120356Z AUTO 03013G20KT 10SM CLR M04/M14 A3066 RMK AO2 SLP399 T10371139 FZRANO $
  • 120256Z AUTO 01012G17KT 10SM CLR M03/M13 A3065 RMK AO2 SLP394 T10351127 52024 FZRANO $

Expired Forecast.



MET'MAP, your aeronautical weather chart ! - Copyright ORBIFLY December 2007 - Disclaimer

ORBIFLY MET'MAP TEAM :

Programming & Development : Alexandra Zaïnal
Concept & Development : Baudouin d'Aumeries
Co-Development & Prog : Marc-Olivier Méhu
Technical & hardware support : Manuel Goepfert

Contact : metmap@orbifly.com




SOURCES & CREDITS :

   NOAA       Earth
Advisory